createdAt,value
2023-04-26T00:02:08.724Z,101688.22
2023-04-26T00:04:36.587Z,101694.41
2023-04-26T00:07:05.900Z,101700.56
2023-04-26T00:09:33.799Z,101698.88
2023-04-26T00:12:01.877Z,101705.97
2023-04-26T00:14:29.546Z,101688.50
2023-04-26T00:16:57.265Z,101692.16
2023-04-26T00:19:25.143Z,101696.72
2023-04-26T00:21:52.768Z,101689.69
2023-04-26T00:24:22.153Z,101684.50
2023-04-26T00:26:49.804Z,101694.09
2023-04-26T00:29:17.563Z,101691.38
2023-04-26T00:31:45.306Z,101680.97
2023-04-26T00:34:13.033Z,101687.97
2023-04-26T00:36:40.978Z,101684.50
2023-04-26T00:39:08.762Z,101680.34
2023-04-26T00:41:37.932Z,101688.03
2023-04-26T00:44:06.281Z,101686.50
2023-04-26T00:46:34.009Z,101685.72
2023-04-26T00:49:01.668Z,101680.63
2023-04-26T00:51:29.445Z,101684.34
2023-04-26T00:53:57.886Z,101681.94
2023-04-26T00:56:26.362Z,101677.69
2023-04-26T00:58:55.623Z,101673.34
2023-04-26T01:01:23.349Z,101677.84
2023-04-26T01:03:51.175Z,101670.19
2023-04-26T01:06:19.075Z,101672.88
2023-04-26T01:08:46.730Z,101683.53
2023-04-26T01:11:14.925Z,101669.66
2023-04-26T01:13:43.223Z,101667.22
2023-04-26T01:16:12.468Z,101678.66
2023-04-26T01:18:40.112Z,101676.13
2023-04-26T01:21:08.291Z,101675.19
2023-04-26T01:23:37.450Z,101677.03
2023-04-26T01:26:05.096Z,101681.44
2023-04-26T01:28:32.726Z,101681.44
2023-04-26T01:31:00.490Z,101678.88
2023-04-26T01:33:28.126Z,101677.19
2023-04-26T01:35:55.831Z,101678.88
2023-04-26T01:38:23.516Z,101678.88
2023-04-26T01:40:52.513Z,101676.31
2023-04-26T01:43:23.009Z,101676.31
2023-04-26T01:45:50.695Z,101685.13
2023-04-26T01:48:18.388Z,101680.88
2023-04-26T01:50:46.077Z,101674.06
2023-04-26T01:53:13.745Z,101667.13
2023-04-26T01:55:41.477Z,101673.38
2023-04-26T01:58:10.539Z,101672.53
2023-04-26T02:00:39.114Z,101680.44
2023-04-26T02:03:06.950Z,101681.47
2023-04-26T02:05:34.685Z,101677.22
2023-04-26T02:08:02.298Z,101678.91
2023-04-26T02:10:29.955Z,101679.84
2023-04-26T02:12:57.607Z,101683.44
2023-04-26T02:15:26.698Z,101687.91
2023-04-26T02:17:55.776Z,101681.75
2023-04-26T02:20:23.737Z,101683.50
2023-04-26T02:22:51.427Z,101678.19
2023-04-26T02:25:19.110Z,101682.53
2023-04-26T02:27:46.738Z,101682.53
2023-04-26T02:30:14.880Z,101674.66
2023-04-26T02:32:44.157Z,101682.53
2023-04-26T02:35:11.831Z,101688.75
2023-04-26T02:37:39.563Z,101693.16
2023-04-26T02:40:10.939Z,101691.47
2023-04-26T02:42:38.635Z,101689.00
2023-04-26T02:45:07.855Z,101682.09
2023-04-26T02:47:36.811Z,101680.31
2023-04-26T02:50:07.484Z,101685.72
2023-04-26T02:52:35.246Z,101679.72
2023-04-26T02:55:03.957Z,101682.34
2023-04-26T02:57:31.789Z,101679.72
2023-04-26T02:59:59.716Z,101678.91
2023-04-26T03:02:27.682Z,101677.16
2023-04-26T03:04:55.416Z,101678.00
2023-04-26T03:07:24.512Z,101676.28
2023-04-26T03:09:52.262Z,101679.72
2023-04-26T03:12:19.923Z,101681.41
2023-04-26T03:14:47.559Z,101685.72
2023-04-26T03:17:15.161Z,101677.84
2023-04-26T03:19:42.802Z,101676.94
2023-04-26T03:22:11.378Z,101684.03
2023-04-26T03:24:41.137Z,101680.63
2023-04-26T03:27:09.277Z,101682.34
2023-04-26T03:29:37.355Z,101666.59
2023-04-26T03:32:06.194Z,101664.91
2023-04-26T03:34:34.044Z,101664.91
2023-04-26T03:37:01.690Z,101663.16
2023-04-26T03:39:29.335Z,101658.84
2023-04-26T03:41:58.468Z,101665.88
2023-04-26T03:44:26.114Z,101660.72
2023-04-26T03:46:53.728Z,101655.53
2023-04-26T03:49:21.524Z,101659.09
2023-04-26T03:51:49.225Z,101670.56
2023-04-26T03:54:16.877Z,101660.22
2023-04-26T03:56:44.517Z,101658.53
2023-04-26T03:59:13.640Z,101655.13
2023-04-26T04:01:41.413Z,101665.75
2023-04-26T04:04:10.137Z,101664.03
2023-04-26T04:06:38.363Z,101658.03
2023-04-26T04:09:06.726Z,101665.91
2023-04-26T04:11:34.649Z,101659.88
2023-04-26T04:14:02.878Z,101660.00
2023-04-26T04:16:32.078Z,101666.16
2023-04-26T04:18:59.710Z,101669.72
2023-04-26T04:21:27.662Z,101665.41
2023-04-26T04:23:55.293Z,101670.84
2023-04-26T04:26:23.210Z,101673.53
2023-04-26T04:28:52.080Z,101674.31
2023-04-26T04:31:19.957Z,101671.69
2023-04-26T04:33:49.307Z,101676.06
2023-04-26T04:36:17.693Z,101670.84
2023-04-26T04:38:45.372Z,101676.16
2023-04-26T04:41:13.157Z,101677.69
2023-04-26T04:43:40.845Z,101686.28
2023-04-26T04:46:10.058Z,101676.66
2023-04-26T04:48:39.393Z,101683.47
2023-04-26T04:51:08.735Z,101680.78
2023-04-26T04:53:36.465Z,101687.72
2023-04-26T04:56:04.238Z,101690.25
2023-04-26T04:58:31.928Z,101687.84
2023-04-26T05:01:01.328Z,101678.94
2023-04-26T05:03:29.317Z,101671.91
2023-04-26T05:05:57.223Z,101679.78
2023-04-26T05:08:26.312Z,101691.97
2023-04-26T05:10:53.930Z,101692.69
2023-04-26T05:13:21.592Z,101688.28
2023-04-26T05:15:49.250Z,101696.16
2023-04-26T05:18:16.963Z,101717.22
2023-04-26T05:20:44.700Z,101721.72
2023-04-26T05:23:12.399Z,101720.03
2023-04-26T05:25:41.464Z,101720.03
2023-04-26T05:28:12.673Z,101727.13
2023-04-26T05:30:40.786Z,101717.47
2023-04-26T05:33:08.566Z,101714.63
2023-04-26T05:35:36.377Z,101719.75
2023-04-26T05:38:04.852Z,101712.66
2023-04-26T05:40:32.964Z,101718.59
2023-04-26T05:43:01.991Z,101727.19
2023-04-26T05:45:29.689Z,101730.53
2023-04-26T05:47:57.405Z,101727.84
2023-04-26T05:50:25.143Z,101733.09
2023-04-26T05:52:52.816Z,101707.91
2023-04-26T05:55:21.523Z,101716.22
2023-04-26T05:57:49.286Z,101720.88
2023-04-26T06:00:20.807Z,101719.72
2023-04-26T06:02:48.710Z,101724.25
2023-04-26T06:05:16.597Z,101712.94
2023-04-26T06:07:44.700Z,101724.00
2023-04-26T06:10:13.430Z,101731.63
2023-04-26T06:12:41.412Z,101740.84
2023-04-26T06:15:10.151Z,101736.28
2023-04-26T06:17:39.236Z,101742.28
2023-04-26T06:20:09.462Z,101738.63
2023-04-26T06:22:37.891Z,101735.72
2023-04-26T06:25:07.071Z,101729.28
2023-04-26T06:27:34.764Z,101747.28
2023-04-26T06:30:02.650Z,101747.06
2023-04-26T06:32:30.589Z,101738.25
2023-04-26T06:34:59.892Z,101738.06
2023-04-26T06:37:27.625Z,101735.28
2023-04-26T06:39:55.442Z,101737.69
2023-04-26T06:42:23.075Z,101727.84
2023-04-26T06:44:50.885Z,101730.03
2023-04-26T06:47:18.535Z,101731.47
2023-04-26T06:49:46.282Z,101740.84
2023-04-26T06:52:15.926Z,101731.06
2023-04-26T06:54:56.100Z,101738.94
2023-04-26T06:57:24.880Z,101741.69
2023-04-26T06:59:52.628Z,101747.50
2023-04-26T07:02:20.349Z,101744.75
2023-04-26T07:04:48.255Z,101740.41
2023-04-26T07:07:17.656Z,101748.34
2023-04-26T07:09:46.078Z,101747.66
2023-04-26T07:12:14.055Z,101738.84
2023-04-26T07:14:43.430Z,101744.09
2023-04-26T07:17:11.691Z,101746.44
2023-04-26T07:19:39.409Z,101747.97
2023-04-26T07:22:07.342Z,101742.50
2023-04-26T07:24:36.671Z,101744.91
2023-04-26T07:27:04.518Z,101740.28
2023-04-26T07:29:32.261Z,101737.28
2023-04-26T07:31:59.926Z,101749.41
2023-04-26T07:34:27.651Z,101744.78
2023-04-26T07:36:56.257Z,101739.44
2023-04-26T07:39:24.198Z,101746.78
2023-04-26T07:41:53.350Z,101749.94
2023-04-26T07:44:21.164Z,101751.28
2023-04-26T07:46:48.930Z,101743.38
2023-04-26T07:49:16.631Z,101757.91
2023-04-26T07:51:45.623Z,101750.88
2023-04-26T07:54:13.332Z,101750.78
2023-04-26T07:56:41.078Z,101751.41
2023-04-26T07:59:10.224Z,101749.41
2023-04-26T08:01:38.031Z,101756.28
2023-04-26T08:04:06.604Z,101753.59
2023-04-26T08:06:34.495Z,101762.03
2023-04-26T08:09:02.188Z,101755.75
2023-04-26T08:11:29.969Z,101758.19
2023-04-26T08:13:57.792Z,101757.88
2023-04-26T08:16:27.021Z,101746.34
2023-04-26T08:18:54.793Z,101754.31
2023-04-26T08:21:22.547Z,101758.34
2023-04-26T08:23:50.368Z,101762.66
2023-04-26T08:26:18.361Z,101762.66
2023-04-26T08:28:46.637Z,101767.25
2023-04-26T08:31:15.716Z,101760.53
2023-04-26T08:33:46.091Z,101759.59
2023-04-26T08:36:14.018Z,101767.25
2023-04-26T08:38:42.514Z,101771.34
2023-04-26T08:41:14.811Z,101767.59
2023-04-26T08:43:42.678Z,101774.41
2023-04-26T08:46:13.814Z,101770.94
2023-04-26T08:48:41.729Z,101766.97
2023-04-26T08:51:11.513Z,101769.41
2023-04-26T08:53:39.894Z,101776.38
2023-04-26T08:56:08.401Z,101771.28
2023-04-26T08:58:36.432Z,101771.88
2023-04-26T09:01:04.549Z,101770.88
2023-04-26T09:03:32.386Z,101768.16
2023-04-26T09:06:01.437Z,101767.97
2023-04-26T09:08:33.670Z,101773.41
2023-04-26T09:11:01.647Z,101769.09
2023-04-26T09:13:30.448Z,101765.69
2023-04-26T09:15:58.156Z,101771.88
2023-04-26T09:18:26.495Z,101771.88
2023-04-26T09:21:05.045Z,101780.69
2023-04-26T09:23:34.429Z,101774.50
2023-04-26T09:26:19.112Z,101772.75
2023-04-26T09:28:47.619Z,101778.25
2023-04-26T09:31:37.430Z,101773.91
2023-04-26T09:34:05.275Z,101775.19
2023-04-26T09:36:32.950Z,101776.19
2023-04-26T09:39:02.197Z,101779.06
2023-04-26T09:41:44.344Z,101773.97
2023-04-26T09:44:24.705Z,101777.38
2023-04-26T09:47:00.039Z,101775.81
2023-04-26T09:49:28.360Z,101774.81
2023-04-26T09:52:03.016Z,101773.03
2023-04-26T09:54:43.309Z,101780.66
2023-04-26T09:57:11.563Z,101774.41
2023-04-26T09:59:44.010Z,101760.91
2023-04-26T10:02:17.154Z,101769.19
2023-04-26T10:04:47.329Z,101760.16
2023-04-26T10:07:15.948Z,101759.00
2023-04-26T10:09:46.646Z,101761.44
2023-04-26T10:12:15.356Z,101761.44
2023-04-26T10:14:44.233Z,101752.38
2023-04-26T10:17:41.027Z,101766.66
2023-04-26T10:20:13.025Z,101759.34
2023-04-26T10:22:46.262Z,101762.56
2023-04-26T10:25:14.730Z,101758.91
2023-04-26T10:27:49.353Z,101766.66
2023-04-26T10:30:17.710Z,101758.81
2023-04-26T10:33:14.970Z,101761.38
2023-04-26T10:36:01.294Z,101758.81
2023-04-26T10:38:29.087Z,101755.63
2023-04-26T10:40:57.533Z,101763.41
2023-04-26T10:43:32.834Z,101757.91
2023-04-26T10:46:38.342Z,101756.97
2023-04-26T10:49:17.076Z,101758.81
2023-04-26T10:52:22.989Z,101755.94
2023-04-26T10:54:52.970Z,101753.22
2023-04-26T10:57:21.510Z,101744.22
2023-04-26T11:00:17.868Z,101748.09
2023-04-26T11:03:02.412Z,101744.44
2023-04-26T11:05:38.562Z,101739.78
2023-04-26T11:08:07.685Z,101739.41
2023-04-26T11:10:36.738Z,101742.63
2023-04-26T11:13:05.085Z,101739.63
2023-04-26T11:15:32.906Z,101729.84
2023-04-26T11:18:05.489Z,101728.00
2023-04-26T11:20:33.708Z,101724.41
2023-04-26T11:23:02.075Z,101726.00
2023-04-26T11:25:30.445Z,101736.47
2023-04-26T11:28:01.809Z,101729.34
2023-04-26T11:30:31.679Z,101732.03
2023-04-26T11:33:00.209Z,101727.81
2023-04-26T11:35:29.982Z,101735.50
2023-04-26T11:38:00.261Z,101740.72
2023-04-26T11:40:32.287Z,101738.16
2023-04-26T11:43:03.510Z,101740.88
2023-04-26T11:45:32.838Z,101740.03
2023-04-26T11:48:01.725Z,101746.00
2023-04-26T11:50:32.437Z,101734.59
2023-04-26T11:53:01.676Z,101738.16
2023-04-26T11:55:30.585Z,101734.59
2023-04-26T11:57:58.789Z,101738.75
2023-04-26T12:00:27.078Z,101735.06
2023-04-26T12:02:57.205Z,101734.91
2023-04-26T12:05:27.370Z,101728.59
2023-04-26T12:07:57.690Z,101739.13
2023-04-26T12:10:27.243Z,101733.88
2023-04-26T12:12:56.792Z,101729.44
2023-04-26T12:15:25.978Z,101732.91
2023-04-26T12:18:01.131Z,101732.91
2023-04-26T12:20:33.604Z,101731.13
2023-04-26T12:23:05.951Z,101739.13
2023-04-26T12:25:34.850Z,101737.44
2023-04-26T12:28:04.373Z,101734.63
2023-04-26T12:30:32.368Z,101736.34
2023-04-26T12:33:05.903Z,101734.72
2023-04-26T12:35:43.140Z,101731.91
2023-04-26T12:38:12.575Z,101733.69
2023-04-26T12:40:40.636Z,101736.34
2023-04-26T12:43:08.329Z,101738.19
2023-04-26T12:45:36.023Z,101744.41
2023-04-26T12:48:03.994Z,101741.97
2023-04-26T12:50:31.889Z,101730.66
2023-04-26T12:52:59.550Z,101741.13
2023-04-26T12:55:29.988Z,101736.94
2023-04-26T12:57:59.804Z,101728.94
2023-04-26T13:00:27.484Z,101735.06
2023-04-26T13:02:55.577Z,101734.22
2023-04-26T13:05:24.673Z,101741.38
2023-04-26T13:07:52.509Z,101735.25
2023-04-26T13:10:20.178Z,101744.00
2023-04-26T13:12:49.332Z,101730.84
2023-04-26T13:15:17.755Z,101741.47
2023-04-26T13:17:45.772Z,101739.03
2023-04-26T13:20:14.541Z,101739.88
2023-04-26T13:22:43.335Z,101748.44
2023-04-26T13:25:13.155Z,101738.16
2023-04-26T13:27:41.154Z,101741.38
2023-04-26T13:30:11.694Z,101748.34
2023-04-26T13:32:39.489Z,101746.66
2023-04-26T13:35:08.297Z,101739.69
2023-04-26T13:37:36.213Z,101751.75
2023-04-26T13:40:05.433Z,101742.97
2023-04-26T13:42:33.119Z,101748.19
2023-04-26T13:45:01.306Z,101752.59
2023-04-26T13:47:30.466Z,101752.50
2023-04-26T13:49:58.124Z,101750.63
2023-04-26T13:52:26.005Z,101761.16
2023-04-26T13:54:53.897Z,101747.34
2023-04-26T13:57:21.716Z,101754.09
2023-04-26T13:59:49.541Z,101750.72
2023-04-26T14:02:17.371Z,101751.38
2023-04-26T14:04:46.915Z,101749.69
2023-04-26T14:07:14.735Z,101756.38
2023-04-26T14:09:42.501Z,101753.66
2023-04-26T14:12:10.586Z,101752.72
2023-04-26T14:14:38.302Z,101743.84
2023-04-26T14:17:05.995Z,101750.69
2023-04-26T14:19:33.707Z,101742.44
2023-04-26T14:22:02.749Z,101741.28
2023-04-26T14:24:30.366Z,101747.03
2023-04-26T14:26:58.418Z,101749.59
2023-04-26T14:29:26.388Z,101747.88
2023-04-26T14:31:54.288Z,101741.78
2023-04-26T14:34:23.723Z,101741.78
2023-04-26T14:36:51.433Z,101737.34
2023-04-26T14:39:22.143Z,101730.00
2023-04-26T14:41:51.910Z,101741.41
2023-04-26T14:44:19.558Z,101736.13
2023-04-26T14:46:47.213Z,101737.91
2023-04-26T14:49:14.887Z,101738.88
2023-04-26T14:51:42.580Z,101739.81
2023-04-26T14:54:10.493Z,101726.03
2023-04-26T14:56:39.769Z,101733.69
2023-04-26T14:59:07.934Z,101738.88
2023-04-26T15:01:35.805Z,101731.78
2023-04-26T15:04:03.808Z,101727.28
2023-04-26T15:06:34.130Z,101734.13
2023-04-26T15:09:02.084Z,101728.78
2023-04-26T15:11:29.839Z,101724.38
2023-04-26T15:13:59.140Z,101725.09
2023-04-26T15:16:26.821Z,101724.16
2023-04-26T15:18:54.698Z,101728.59
2023-04-26T15:21:22.453Z,101712.88
2023-04-26T15:23:50.074Z,101727.75
2023-04-26T15:26:17.836Z,101725.84
2023-04-26T15:28:45.445Z,101721.25
2023-04-26T15:31:14.532Z,101715.13
2023-04-26T15:33:42.383Z,101709.28
2023-04-26T15:36:10.388Z,101712.41
2023-04-26T15:38:38.186Z,101719.16
2023-04-26T15:41:06.625Z,101720.31
2023-04-26T15:43:34.356Z,101714.25
2023-04-26T15:46:02.082Z,101711.53
2023-04-26T15:48:31.167Z,101718.69
2023-04-26T15:50:58.865Z,101711.81
2023-04-26T15:53:27.043Z,101718.88
2023-04-26T15:55:54.746Z,101736.41
2023-04-26T15:58:22.425Z,101734.72
2023-04-26T16:00:50.080Z,101737.25
2023-04-26T16:03:18.011Z,101744.31
2023-04-26T16:05:47.315Z,101735.56
2023-04-26T16:08:24.374Z,101733.13
2023-04-26T16:11:01.075Z,101734.25
2023-04-26T16:13:28.820Z,101730.75
2023-04-26T16:15:57.008Z,101737.81
2023-04-26T16:18:24.671Z,101738.66
2023-04-26T16:20:53.831Z,101735.94
2023-04-26T16:23:21.746Z,101740.00
2023-04-26T16:25:49.430Z,101745.38
2023-04-26T16:28:17.172Z,101740.00
2023-04-26T16:30:44.792Z,101734.72
2023-04-26T16:33:12.431Z,101736.41
2023-04-26T16:35:40.248Z,101740.75
2023-04-26T16:38:09.288Z,101731.34
2023-04-26T16:40:37.016Z,101734.72
2023-04-26T16:43:04.738Z,101735.47
2023-04-26T16:45:32.411Z,101733.97
2023-04-26T16:48:00.220Z,101737.63
2023-04-26T16:50:27.920Z,101732.66
2023-04-26T16:52:55.792Z,101742.44
2023-04-26T16:55:25.037Z,101743.38
2023-04-26T16:57:52.726Z,101745.09
2023-04-26T17:00:20.751Z,101745.00
2023-04-26T17:02:50.154Z,101740.56
2023-04-26T17:07:27.228Z,101745.16
2023-04-26T17:09:55.319Z,101748.63
2023-04-26T17:12:23.050Z,101753.00
2023-04-26T17:14:50.770Z,101756.50
2023-04-26T17:17:18.438Z,101752.22
2023-04-26T17:19:46.111Z,101747.88
2023-04-26T17:22:13.801Z,101756.56
2023-04-26T17:24:42.843Z,101758.28
2023-04-26T17:27:10.555Z,101751.97
2023-04-26T17:29:38.201Z,101761.66
2023-04-26T17:32:06.475Z,101758.06
2023-04-26T17:34:34.266Z,101757.13
2023-04-26T17:37:01.940Z,101751.84
2023-04-26T17:39:29.965Z,101746.78
2023-04-26T17:41:59.051Z,101750.38
2023-04-26T17:44:26.920Z,101748.63
2023-04-26T17:46:54.654Z,101746.88
2023-04-26T17:49:25.605Z,101760.97
2023-04-26T17:51:53.282Z,101749.59
2023-04-26T17:54:21.158Z,101750.44
2023-04-26T17:56:48.783Z,101751.28
2023-04-26T17:59:17.931Z,101753.00
2023-04-26T18:01:45.678Z,101747.72
2023-04-26T18:04:13.566Z,101754.84
2023-04-26T18:06:41.639Z,101751.47
2023-04-26T18:09:09.486Z,101761.19
2023-04-26T18:11:37.191Z,101754.00
2023-04-26T18:14:04.822Z,101762.72
2023-04-26T18:16:33.940Z,101763.72
2023-04-26T18:19:01.666Z,101761.06
2023-04-26T18:21:29.440Z,101761.28
2023-04-26T18:23:57.186Z,101764.94
2023-04-26T18:26:24.845Z,101768.59
2023-04-26T18:28:52.677Z,101759.84
2023-04-26T18:31:20.936Z,101764.28
2023-04-26T18:33:50.344Z,101767.84
2023-04-26T18:36:18.233Z,101776.72
2023-04-26T18:38:45.941Z,101777.47
2023-04-26T18:41:13.643Z,101775.66
2023-04-26T18:43:41.565Z,101768.91
2023-04-26T18:46:09.264Z,101772.19
2023-04-26T18:48:36.993Z,101773.13
2023-04-26T18:51:06.143Z,101782.72
2023-04-26T18:53:33.837Z,101777.66
2023-04-26T18:56:01.620Z,101781.97
2023-04-26T18:58:29.327Z,101781.13
2023-04-26T19:00:56.953Z,101787.34
2023-04-26T19:03:25.131Z,101777.72
2023-04-26T19:05:53.249Z,101784.78
2023-04-26T19:08:22.300Z,101786.56
2023-04-26T19:10:50.135Z,101782.34
2023-04-26T19:13:18.681Z,101792.94
2023-04-26T19:15:46.715Z,101787.84
2023-04-26T19:18:14.717Z,101794.91
2023-04-26T19:20:42.585Z,101809.88
2023-04-26T19:23:10.263Z,101797.81
2023-04-26T19:25:39.356Z,101805.81
2023-04-26T19:28:07.129Z,101801.47
2023-04-26T19:30:34.873Z,101799.97
2023-04-26T19:33:02.604Z,101807.03
2023-04-26T19:35:30.510Z,101802.75
2023-04-26T19:37:58.211Z,101806.63
2023-04-26T19:40:25.978Z,101801.41
2023-04-26T19:42:55.079Z,101805.19
2023-04-26T19:45:22.761Z,101805.53
2023-04-26T19:47:50.509Z,101807.41
2023-04-26T19:50:18.855Z,101807.75
2023-04-26T19:52:47.019Z,101818.28
2023-04-26T19:55:15.004Z,101812.34
2023-04-26T19:57:42.716Z,101813.34
2023-04-26T20:00:13.161Z,101818.81
2023-04-26T20:02:40.983Z,101820.84
2023-04-26T20:05:09.747Z,101827.13
2023-04-26T20:07:37.396Z,101829.88
2023-04-26T20:10:05.542Z,101833.59
2023-04-26T20:12:34.357Z,101834.63
2023-04-26T20:15:02.162Z,101834.72
2023-04-26T20:17:31.214Z,101841.78
2023-04-26T20:19:58.977Z,101841.06
2023-04-26T20:22:26.869Z,101846.34
2023-04-26T20:24:54.559Z,101829.34
2023-04-26T20:27:22.272Z,101849.91
2023-04-26T20:29:49.946Z,101839.56
2023-04-26T20:32:17.757Z,101836.91
2023-04-26T20:34:46.992Z,101844.03
2023-04-26T20:37:14.780Z,101846.84
2023-04-26T20:39:42.771Z,101845.38
2023-04-26T20:42:10.586Z,101848.03
2023-04-26T20:44:38.423Z,101847.34
2023-04-26T20:47:06.134Z,101847.50
2023-04-26T20:49:33.726Z,101849.38
2023-04-26T20:52:02.868Z,101851.38
2023-04-26T20:54:31.217Z,101849.88
2023-04-26T20:56:58.895Z,101850.81
2023-04-26T20:59:27.007Z,101853.56
2023-04-26T21:01:54.881Z,101852.06
2023-04-26T21:04:22.854Z,101858.50
2023-04-26T21:06:51.076Z,101847.28
2023-04-26T21:09:20.107Z,101857.88
2023-04-26T21:11:47.827Z,101861.53
2023-04-26T21:14:15.466Z,101866.09
2023-04-26T21:16:43.100Z,101860.97
2023-04-26T21:19:11.117Z,101859.28
2023-04-26T21:21:39.081Z,101864.72
2023-04-26T21:24:07.257Z,101867.41
2023-04-26T21:26:36.278Z,101860.44
2023-04-26T21:29:04.029Z,101858.84
2023-04-26T21:31:31.798Z,101858.06
2023-04-26T21:33:59.569Z,101867.75
2023-04-26T21:36:28.082Z,101859.91
2023-04-26T21:38:55.890Z,101867.88
2023-04-26T21:41:25.754Z,101861.88
2023-04-26T21:43:55.179Z,101864.56
2023-04-26T21:46:22.990Z,101860.38
2023-04-26T21:48:50.803Z,101860.56
2023-04-26T21:51:19.887Z,101865.09
2023-04-26T21:53:47.585Z,101863.41
2023-04-26T21:56:15.577Z,101862.81
2023-04-26T21:58:43.509Z,101862.81
2023-04-26T22:01:14.190Z,101863.72
2023-04-26T22:03:42.060Z,101865.56
2023-04-26T22:06:11.131Z,101865.75
2023-04-26T22:08:38.749Z,101858.91
2023-04-26T22:11:06.449Z,101863.50
2023-04-26T22:13:34.212Z,101858.38
2023-04-26T22:16:03.196Z,101861.13
2023-04-26T22:18:32.479Z,101869.09
2023-04-26T22:21:00.280Z,101865.75
2023-04-26T22:23:27.952Z,101872.03
2023-04-26T22:25:57.325Z,101875.72
2023-04-26T22:28:25.011Z,101861.81
2023-04-26T22:30:52.713Z,101868.94
2023-04-26T22:33:20.485Z,101874.19
2023-04-26T22:35:49.620Z,101873.41
2023-04-26T22:38:17.318Z,101881.44
2023-04-26T22:40:44.913Z,101880.75
2023-04-26T22:43:12.589Z,101880.81
2023-04-26T22:45:40.328Z,101881.78
2023-04-26T22:48:08.121Z,101886.34
2023-04-26T22:50:35.799Z,101889.97
2023-04-26T22:53:05.184Z,101890.13
2023-04-26T22:55:32.847Z,101883.16
2023-04-26T22:58:00.562Z,101893.75
2023-04-26T23:00:28.174Z,101888.63
2023-04-26T23:02:55.908Z,101894.97
2023-04-26T23:05:23.668Z,101895.97
2023-04-26T23:07:51.325Z,101896.09
2023-04-26T23:10:20.476Z,101895.41
2023-04-26T23:12:49.205Z,101895.47
2023-04-26T23:15:16.911Z,101893.84
2023-04-26T23:17:45.529Z,101889.59
2023-04-26T23:20:13.692Z,101889.66
2023-04-26T23:22:41.503Z,101892.41
2023-04-26T23:25:10.123Z,101895.13
2023-04-26T23:27:39.330Z,101900.44
2023-04-26T23:30:08.648Z,101902.34
2023-04-26T23:32:36.403Z,101905.19
2023-04-26T23:35:04.531Z,101908.78
2023-04-26T23:37:32.228Z,101911.56
2023-04-26T23:39:59.968Z,101910.88
2023-04-26T23:42:27.716Z,101904.03
2023-04-26T23:44:56.969Z,101901.63
2023-04-26T23:47:24.649Z,101907.72
2023-04-26T23:49:52.396Z,101908.72
2023-04-26T23:52:20.006Z,101909.72
2023-04-26T23:54:47.746Z,101916.81
2023-04-26T23:57:15.428Z,101912.69
2023-04-26T23:59:43.074Z,101908.41
